N59TA LPMA-LPCS
Flight info
| Callsign | N59TA |
|---|---|
| Flight time | 2h 25m |
| Altitude | 18000 |
| Route | DEGUN UZ13 NARTA UN745 DEKUS DCT CEFOX |
| Aircraft | B36T/L-BDFGLORY/S |
Departure
| Time | 2026-04-15 14:46 |
|---|---|
| Airport | Cristiano Ronaldo International Airport (LPMA) |
Arrival
| Time | 2026-04-15 17:12 |
|---|---|
| Airport | Cascais Airport (LPCS) |
| Time | Latitude | Longitude | Altitude | Speed | Heading |
|---|---|---|---|---|---|
| 2026-04-15 14:35 | 32.69225 | -16.77816 | 171 ft | 0 kts | 135° |
| 2026-04-15 14:38 | 32.69226 | -16.77816 | 171 ft | 0 kts | 135° |
| 2026-04-15 14:40 | 32.69226 | -16.77817 | 171 ft | 0 kts | 136° |
| 2026-04-15 14:43 | 32.69228 | -16.77819 | 171 ft | 3 kts | 136° |
| 2026-04-15 14:44 | 32.69239 | -16.77865 | 171 ft | 0 kts | 59° |
| 2026-04-15 14:44 | 32.69243 | -16.77859 | 171 ft | 1 kts | 40° |
| 2026-04-15 14:44 | 32.69280 | -16.77882 | 171 ft | 7 kts | 294° |
| 2026-04-15 14:44 | 32.69281 | -16.77884 | 171 ft | 0 kts | 292° |
| 2026-04-15 14:45 | 32.69287 | -16.77911 | 171 ft | 12 kts | 278° |
| 2026-04-15 14:45 | 32.69287 | -16.77990 | 171 ft | 2 kts | 263° |
| 2026-04-15 14:45 | 32.69284 | -16.78015 | 171 ft | 0 kts | 259° |
| 2026-04-15 14:45 | 32.69324 | -16.77994 | 171 ft | 28 kts | 45° |
| 2026-04-15 14:46 | 32.69656 | -16.77621 | 297 ft | 88 kts | 39° |
| 2026-04-15 14:46 | 32.70136 | -16.77084 | 689 ft | 109 kts | 47° |
| 2026-04-15 14:46 | 32.70704 | -16.76371 | 1182 ft | 125 kts | 43° |
| 2026-04-15 14:46 | 32.71218 | -16.75500 | 1568 ft | 140 kts | 67° |
| 2026-04-15 14:47 | 32.71388 | -16.74385 | 2064 ft | 143 kts | 91° |
| 2026-04-15 14:47 | 32.70891 | -16.73305 | 2434 ft | 159 kts | 130° |
| 2026-04-15 14:47 | 32.70115 | -16.72369 | 2856 ft | 159 kts | 127° |
| 2026-04-15 14:47 | 32.69366 | -16.71404 | 3282 ft | 159 kts | 125° |
| 2026-04-15 14:48 | 32.68650 | -16.70415 | 3706 ft | 157 kts | 122° |
| 2026-04-15 14:48 | 32.67984 | -16.69409 | 4131 ft | 153 kts | 120° |
| 2026-04-15 14:48 | 32.67377 | -16.68393 | 4557 ft | 149 kts | 117° |
| 2026-04-15 14:48 | 32.66905 | -16.67326 | 6942 ft | 144 kts | 97° |
| 2026-04-15 14:49 | 32.67068 | -16.66160 | 9181 ft | 149 kts | 63° |
| 2026-04-15 14:49 | 32.67879 | -16.65408 | 9615 ft | 152 kts | 31° |
| 2026-04-15 14:49 | 32.68734 | -16.64718 | 10032 ft | 148 kts | 48° |
| 2026-04-15 14:49 | 32.69451 | -16.63807 | 10397 ft | 154 kts | 51° |
| 2026-04-15 14:50 | 32.70181 | -16.62845 | 10755 ft | 159 kts | 51° |
| 2026-04-15 14:50 | 32.70925 | -16.61854 | 11114 ft | 162 kts | 51° |
| 2026-04-15 14:50 | 32.71676 | -16.60849 | 11477 ft | 163 kts | 53° |
| 2026-04-15 14:50 | 32.72435 | -16.59837 | 11841 ft | 164 kts | 52° |
| 2026-04-15 14:51 | 32.73116 | -16.58791 | 12201 ft | 161 kts | 62° |
| 2026-04-15 14:51 | 32.73817 | -16.57757 | 12568 ft | 162 kts | 48° |
| 2026-04-15 14:51 | 32.74602 | -16.56806 | 12946 ft | 160 kts | 52° |
| 2026-04-15 14:51 | 32.75347 | -16.55827 | 13319 ft | 160 kts | 52° |
| 2026-04-15 14:52 | 32.76091 | -16.54840 | 13701 ft | 161 kts | 52° |
| 2026-04-15 14:52 | 32.76830 | -16.53842 | 14087 ft | 161 kts | 52° |
| 2026-04-15 14:52 | 32.77571 | -16.52850 | 14433 ft | 161 kts | 53° |
| 2026-04-15 14:52 | 32.78313 | -16.51858 | 14781 ft | 160 kts | 52° |
| 2026-04-15 14:53 | 32.79060 | -16.50867 | 15130 ft | 161 kts | 52° |
| 2026-04-15 14:53 | 32.79801 | -16.49870 | 15489 ft | 161 kts | 52° |
| 2026-04-15 14:53 | 32.80540 | -16.48877 | 15848 ft | 160 kts | 53° |
| 2026-04-15 14:53 | 32.81284 | -16.47881 | 16214 ft | 162 kts | 52° |
| 2026-04-15 14:54 | 32.82075 | -16.46821 | 16282 ft | 181 kts | 51° |
| 2026-04-15 14:54 | 32.82643 | -16.46059 | 16293 ft | 190 kts | 51° |
| 2026-04-15 14:54 | 32.83543 | -16.44853 | 16293 ft | 199 kts | 52° |
| 2026-04-15 14:54 | 32.84476 | -16.43600 | 16294 ft | 205 kts | 50° |
| 2026-04-15 14:55 | 32.85427 | -16.42325 | 16292 ft | 206 kts | 52° |
| 2026-04-15 14:55 | 32.86383 | -16.41048 | 16291 ft | 208 kts | 51° |
| 2026-04-15 14:55 | 32.87344 | -16.39758 | 16294 ft | 209 kts | 52° |
| 2026-04-15 14:55 | 32.88308 | -16.38462 | 16293 ft | 210 kts | 51° |
| 2026-04-15 14:56 | 32.89278 | -16.37161 | 16295 ft | 210 kts | 52° |
| 2026-04-15 14:56 | 32.90247 | -16.35860 | 16294 ft | 210 kts | 50° |
| 2026-04-15 14:56 | 32.91217 | -16.34558 | 16286 ft | 210 kts | 52° |
| 2026-04-15 14:56 | 32.92188 | -16.33255 | 16290 ft | 210 kts | 52° |
| 2026-04-15 14:57 | 32.93156 | -16.31957 | 16293 ft | 209 kts | 52° |
| 2026-04-15 14:57 | 32.94116 | -16.30650 | 16293 ft | 210 kts | 51° |
| 2026-04-15 14:57 | 32.95086 | -16.29349 | 16295 ft | 210 kts | 50° |
| 2026-04-15 14:57 | 32.96055 | -16.28046 | 16297 ft | 210 kts | 52° |
| 2026-04-15 14:58 | 32.97022 | -16.26739 | 16293 ft | 210 kts | 53° |
| 2026-04-15 14:58 | 32.97994 | -16.25433 | 16294 ft | 211 kts | 53° |
| 2026-04-15 14:58 | 32.98953 | -16.24145 | 16293 ft | 210 kts | 52° |
| 2026-04-15 14:58 | 32.99921 | -16.22840 | 16293 ft | 210 kts | 51° |
| 2026-04-15 14:59 | 33.00888 | -16.21531 | 16292 ft | 211 kts | 51° |
| 2026-04-15 14:59 | 33.01857 | -16.20223 | 16293 ft | 210 kts | 52° |
| 2026-04-15 14:59 | 33.02823 | -16.18921 | 16293 ft | 210 kts | 52° |
| 2026-04-15 14:59 | 33.03789 | -16.17616 | 16293 ft | 210 kts | 51° |
| 2026-04-15 15:00 | 33.04758 | -16.16308 | 16300 ft | 210 kts | 51° |
| 2026-04-15 15:00 | 33.05724 | -16.15001 | 16302 ft | 210 kts | 51° |
| 2026-04-15 15:00 | 33.06695 | -16.13698 | 16301 ft | 210 kts | 51° |
| 2026-04-15 15:00 | 33.07663 | -16.12392 | 16301 ft | 210 kts | 51° |
| 2026-04-15 15:01 | 33.08631 | -16.11088 | 16298 ft | 211 kts | 50° |
| 2026-04-15 15:01 | 33.09701 | -16.09888 | 16299 ft | 211 kts | 44° |
| 2026-04-15 15:01 | 33.10789 | -16.08704 | 16300 ft | 212 kts | 47° |
| 2026-04-15 15:01 | 33.11858 | -16.07502 | 16300 ft | 211 kts | 48° |
| 2026-04-15 15:02 | 33.12915 | -16.06290 | 16299 ft | 211 kts | 46° |
| 2026-04-15 15:02 | 33.13977 | -16.05082 | 16298 ft | 211 kts | 46° |
| 2026-04-15 15:02 | 33.15041 | -16.03872 | 16298 ft | 211 kts | 46° |
| 2026-04-15 15:02 | 33.16089 | -16.02679 | 16295 ft | 211 kts | 48° |
| 2026-04-15 15:03 | 33.17153 | -16.01469 | 16297 ft | 212 kts | 46° |
| 2026-04-15 15:03 | 33.18221 | -16.00245 | 16297 ft | 213 kts | 47° |
| 2026-04-15 15:03 | 33.19295 | -15.99016 | 16291 ft | 214 kts | 45° |
| 2026-04-15 15:03 | 33.20380 | -15.97794 | 16292 ft | 215 kts | 45° |
| 2026-04-15 15:04 | 33.21460 | -15.96561 | 16292 ft | 215 kts | 45° |
| 2026-04-15 15:04 | 33.22539 | -15.95324 | 16293 ft | 215 kts | 45° |
| 2026-04-15 15:04 | 33.23625 | -15.94091 | 16293 ft | 215 kts | 45° |
| 2026-04-15 15:04 | 33.24707 | -15.92856 | 16294 ft | 215 kts | 45° |
| 2026-04-15 15:05 | 33.25787 | -15.91614 | 16291 ft | 215 kts | 47° |
| 2026-04-15 15:05 | 33.26870 | -15.90378 | 16292 ft | 215 kts | 46° |
| 2026-04-15 15:05 | 33.27956 | -15.89142 | 16292 ft | 216 kts | 46° |
| 2026-04-15 15:05 | 33.29039 | -15.87905 | 16295 ft | 215 kts | 46° |
| 2026-04-15 15:06 | 33.31204 | -15.85426 | 16300 ft | 215 kts | 47° |
| 2026-04-15 15:06 | 33.32286 | -15.84187 | 16299 ft | 215 kts | 47° |
| 2026-04-15 15:06 | 33.33368 | -15.82949 | 16299 ft | 215 kts | 47° |
| 2026-04-15 15:07 | 33.34451 | -15.81712 | 16297 ft | 215 kts | 45° |
| 2026-04-15 15:07 | 33.35531 | -15.80469 | 16297 ft | 215 kts | 46° |
| 2026-04-15 15:07 | 33.36611 | -15.79229 | 16297 ft | 215 kts | 45° |
| 2026-04-15 15:07 | 33.37694 | -15.77990 | 16293 ft | 216 kts | 45° |
| 2026-04-15 15:08 | 33.38778 | -15.76748 | 16294 ft | 216 kts | 45° |
| 2026-04-15 15:08 | 33.39861 | -15.75509 | 16294 ft | 215 kts | 45° |
| 2026-04-15 15:08 | 33.40944 | -15.74269 | 16294 ft | 215 kts | 46° |
| 2026-04-15 15:08 | 33.42023 | -15.73025 | 16297 ft | 216 kts | 45° |
| 2026-04-15 15:09 | 33.43103 | -15.71780 | 16298 ft | 215 kts | 45° |
| 2026-04-15 15:09 | 33.44170 | -15.70556 | 16297 ft | 216 kts | 45° |
| 2026-04-15 15:09 | 33.45253 | -15.69312 | 16297 ft | 216 kts | 47° |
| 2026-04-15 15:09 | 33.46335 | -15.68068 | 16296 ft | 216 kts | 47° |
| 2026-04-15 15:10 | 33.47417 | -15.66823 | 16294 ft | 216 kts | 46° |
| 2026-04-15 15:10 | 33.48504 | -15.65572 | 16294 ft | 217 kts | 46° |
| 2026-04-15 15:10 | 33.49594 | -15.64318 | 16294 ft | 217 kts | 46° |
| 2026-04-15 15:10 | 33.50684 | -15.63059 | 16290 ft | 218 kts | 46° |
| 2026-04-15 15:11 | 33.51777 | -15.61803 | 16295 ft | 218 kts | 45° |
| 2026-04-15 15:11 | 33.52869 | -15.60545 | 16295 ft | 218 kts | 45° |
| 2026-04-15 15:11 | 33.53960 | -15.59285 | 16296 ft | 218 kts | 45° |
| 2026-04-15 15:11 | 33.55053 | -15.58025 | 16296 ft | 218 kts | 45° |
| 2026-04-15 15:12 | 33.56145 | -15.56765 | 16296 ft | 218 kts | 45° |
| 2026-04-15 15:12 | 33.57238 | -15.55502 | 16296 ft | 218 kts | 45° |
| 2026-04-15 15:12 | 33.58331 | -15.54242 | 16296 ft | 218 kts | 45° |
| 2026-04-15 15:12 | 33.59423 | -15.52984 | 16296 ft | 218 kts | 45° |
| 2026-04-15 15:13 | 33.60514 | -15.51721 | 16295 ft | 218 kts | 45° |
| 2026-04-15 15:13 | 33.61606 | -15.50458 | 16295 ft | 218 kts | 45° |
| 2026-04-15 15:13 | 33.62698 | -15.49197 | 16295 ft | 218 kts | 45° |
| 2026-04-15 15:13 | 33.63789 | -15.47934 | 16295 ft | 218 kts | 45° |
| 2026-04-15 15:14 | 33.64881 | -15.46672 | 16294 ft | 218 kts | 45° |
| 2026-04-15 15:14 | 33.65970 | -15.45410 | 16300 ft | 218 kts | 45° |
| 2026-04-15 15:14 | 33.67062 | -15.44146 | 16300 ft | 218 kts | 46° |
| 2026-04-15 15:14 | 33.68153 | -15.42882 | 16300 ft | 218 kts | 45° |
| 2026-04-15 15:15 | 33.69244 | -15.41620 | 16300 ft | 218 kts | 45° |
| 2026-04-15 15:15 | 33.70320 | -15.40371 | 16300 ft | 218 kts | 45° |
| 2026-04-15 15:15 | 33.71410 | -15.39106 | 16299 ft | 218 kts | 45° |
| 2026-04-15 15:15 | 33.72503 | -15.37840 | 16299 ft | 218 kts | 45° |
| 2026-04-15 15:16 | 33.73594 | -15.36575 | 16299 ft | 218 kts | 46° |
| 2026-04-15 15:16 | 33.74683 | -15.35307 | 16296 ft | 218 kts | 45° |
| 2026-04-15 15:16 | 33.75774 | -15.34042 | 16297 ft | 218 kts | 45° |
| 2026-04-15 15:16 | 33.76864 | -15.32775 | 16297 ft | 218 kts | 45° |
| 2026-04-15 15:17 | 33.77957 | -15.31503 | 16295 ft | 219 kts | 45° |
| 2026-04-15 15:17 | 33.79052 | -15.30230 | 16296 ft | 219 kts | 45° |
| 2026-04-15 15:17 | 33.80149 | -15.28953 | 16296 ft | 219 kts | 45° |
| 2026-04-15 15:17 | 33.81245 | -15.27678 | 16296 ft | 220 kts | 45° |
| 2026-04-15 15:18 | 33.82345 | -15.26398 | 16299 ft | 220 kts | 44° |
| 2026-04-15 15:18 | 33.83442 | -15.25120 | 16299 ft | 220 kts | 45° |
| 2026-04-15 15:18 | 33.84541 | -15.23841 | 16299 ft | 220 kts | 45° |
| 2026-04-15 15:18 | 33.85642 | -15.22559 | 16299 ft | 220 kts | 45° |
| 2026-04-15 15:19 | 33.86740 | -15.21278 | 16297 ft | 220 kts | 45° |
| 2026-04-15 15:19 | 33.87838 | -15.19997 | 16296 ft | 220 kts | 45° |
| 2026-04-15 15:19 | 33.88938 | -15.18714 | 16300 ft | 220 kts | 44° |
| 2026-04-15 15:19 | 33.90036 | -15.17433 | 16299 ft | 220 kts | 45° |
| 2026-04-15 15:20 | 33.91134 | -15.16151 | 16297 ft | 220 kts | 45° |
| 2026-04-15 15:20 | 33.92218 | -15.14884 | 16297 ft | 220 kts | 45° |
| 2026-04-15 15:20 | 33.93316 | -15.13601 | 16297 ft | 220 kts | 45° |
| 2026-04-15 15:20 | 33.94414 | -15.12318 | 16297 ft | 220 kts | 45° |
| 2026-04-15 15:21 | 33.95514 | -15.11033 | 16297 ft | 220 kts | 45° |
| 2026-04-15 15:21 | 33.96613 | -15.09746 | 16298 ft | 220 kts | 45° |
| 2026-04-15 15:21 | 33.97712 | -15.08460 | 16298 ft | 220 kts | 45° |
| 2026-04-15 15:21 | 33.98812 | -15.07172 | 16298 ft | 220 kts | 45° |
| 2026-04-15 15:22 | 33.99913 | -15.05883 | 16295 ft | 220 kts | 44° |
| 2026-04-15 15:22 | 34.01010 | -15.04598 | 16298 ft | 220 kts | 45° |
| 2026-04-15 15:22 | 34.02108 | -15.03310 | 16298 ft | 220 kts | 45° |
| 2026-04-15 15:22 | 34.03207 | -15.02024 | 16298 ft | 220 kts | 45° |
| 2026-04-15 15:23 | 34.04305 | -15.00736 | 16298 ft | 220 kts | 45° |
| 2026-04-15 15:23 | 34.05402 | -14.99448 | 16298 ft | 220 kts | 45° |
| 2026-04-15 15:23 | 34.06500 | -14.98159 | 16298 ft | 220 kts | 45° |
| 2026-04-15 15:23 | 34.07598 | -14.96870 | 16297 ft | 221 kts | 44° |
| 2026-04-15 15:24 | 34.08699 | -14.95576 | 16299 ft | 221 kts | 44° |
| 2026-04-15 15:24 | 34.09801 | -14.94281 | 16302 ft | 221 kts | 44° |
| 2026-04-15 15:24 | 34.10902 | -14.92987 | 16296 ft | 221 kts | 44° |
| 2026-04-15 15:24 | 34.12003 | -14.91693 | 16296 ft | 221 kts | 44° |
| 2026-04-15 15:25 | 34.13102 | -14.90399 | 16297 ft | 221 kts | 44° |
| 2026-04-15 15:25 | 34.14201 | -14.89106 | 16297 ft | 221 kts | 44° |
| 2026-04-15 15:25 | 34.15299 | -14.87813 | 16297 ft | 221 kts | 44° |
| 2026-04-15 15:25 | 34.16399 | -14.86518 | 16297 ft | 221 kts | 44° |
| 2026-04-15 15:26 | 34.17483 | -14.85240 | 16294 ft | 221 kts | 44° |
| 2026-04-15 15:26 | 34.18582 | -14.83945 | 16294 ft | 221 kts | 44° |
| 2026-04-15 15:26 | 34.19681 | -14.82649 | 16294 ft | 221 kts | 44° |
| 2026-04-15 15:26 | 34.20779 | -14.81355 | 16294 ft | 221 kts | 44° |
| 2026-04-15 15:27 | 34.21876 | -14.80059 | 16297 ft | 221 kts | 44° |
| 2026-04-15 15:27 | 34.22974 | -14.78763 | 16294 ft | 221 kts | 44° |
| 2026-04-15 15:27 | 34.24071 | -14.77468 | 16294 ft | 220 kts | 44° |
| 2026-04-15 15:27 | 34.25167 | -14.76173 | 16297 ft | 221 kts | 44° |
| 2026-04-15 15:28 | 34.26264 | -14.74877 | 16297 ft | 221 kts | 44° |
| 2026-04-15 15:28 | 34.27360 | -14.73580 | 16297 ft | 220 kts | 44° |
| 2026-04-15 15:28 | 34.28457 | -14.72284 | 16297 ft | 220 kts | 44° |
| 2026-04-15 15:28 | 34.29555 | -14.70985 | 16297 ft | 221 kts | 44° |
| 2026-04-15 15:29 | 34.30650 | -14.69688 | 16294 ft | 220 kts | 44° |
| 2026-04-15 15:29 | 34.31746 | -14.68390 | 16294 ft | 221 kts | 44° |
| 2026-04-15 15:29 | 34.32842 | -14.67092 | 16294 ft | 221 kts | 44° |
| 2026-04-15 15:29 | 34.33939 | -14.65791 | 16294 ft | 220 kts | 44° |
| 2026-04-15 15:30 | 34.35035 | -14.64493 | 16297 ft | 220 kts | 44° |
| 2026-04-15 15:30 | 34.36131 | -14.63192 | 16296 ft | 221 kts | 44° |
| 2026-04-15 15:30 | 34.37230 | -14.61889 | 16302 ft | 222 kts | 44° |
| 2026-04-15 15:30 | 34.38331 | -14.60582 | 16302 ft | 222 kts | 44° |
| 2026-04-15 15:31 | 34.39434 | -14.59272 | 16300 ft | 223 kts | 44° |
| 2026-04-15 15:31 | 34.40539 | -14.57960 | 16301 ft | 222 kts | 44° |
| 2026-04-15 15:31 | 34.41642 | -14.56651 | 16300 ft | 222 kts | 44° |
| 2026-04-15 15:31 | 34.42745 | -14.55339 | 16299 ft | 222 kts | 44° |
| 2026-04-15 15:32 | 34.43848 | -14.54028 | 16300 ft | 222 kts | 44° |
| 2026-04-15 15:32 | 34.44947 | -14.52719 | 16299 ft | 222 kts | 44° |
| 2026-04-15 15:32 | 34.46048 | -14.51409 | 16300 ft | 222 kts | 44° |
| 2026-04-15 15:32 | 34.47150 | -14.50098 | 16300 ft | 222 kts | 44° |
| 2026-04-15 15:33 | 34.48250 | -14.48788 | 16300 ft | 222 kts | 44° |
| 2026-04-15 15:33 | 34.49350 | -14.47476 | 16299 ft | 222 kts | 44° |
| 2026-04-15 15:33 | 34.50451 | -14.46162 | 16300 ft | 222 kts | 43° |
| 2026-04-15 15:33 | 34.51553 | -14.44850 | 16300 ft | 222 kts | 44° |
| 2026-04-15 15:34 | 34.52653 | -14.43537 | 16302 ft | 222 kts | 44° |
| 2026-04-15 15:34 | 34.53753 | -14.42223 | 16303 ft | 222 kts | 43° |
| 2026-04-15 15:34 | 34.54854 | -14.40911 | 16303 ft | 222 kts | 43° |
| 2026-04-15 15:34 | 34.55953 | -14.39597 | 16302 ft | 222 kts | 44° |
| 2026-04-15 15:35 | 34.57053 | -14.38282 | 16300 ft | 222 kts | 44° |
| 2026-04-15 15:35 | 34.58154 | -14.36967 | 16301 ft | 222 kts | 44° |
| 2026-04-15 15:35 | 34.59253 | -14.35654 | 16300 ft | 222 kts | 44° |
| 2026-04-15 15:35 | 34.60352 | -14.34338 | 16303 ft | 222 kts | 44° |
| 2026-04-15 15:36 | 34.61452 | -14.33023 | 16305 ft | 222 kts | 44° |
| 2026-04-15 15:36 | 34.62550 | -14.31708 | 16305 ft | 222 kts | 44° |
| 2026-04-15 15:36 | 34.63650 | -14.30390 | 16305 ft | 222 kts | 44° |
| 2026-04-15 15:36 | 34.64749 | -14.29073 | 16305 ft | 222 kts | 44° |
| 2026-04-15 15:37 | 34.65847 | -14.27758 | 16307 ft | 222 kts | 43° |
| 2026-04-15 15:37 | 34.66951 | -14.26432 | 16306 ft | 224 kts | 43° |
| 2026-04-15 15:37 | 34.68062 | -14.25099 | 16307 ft | 225 kts | 43° |
| 2026-04-15 15:37 | 34.69174 | -14.23767 | 16308 ft | 225 kts | 44° |
| 2026-04-15 15:38 | 34.70288 | -14.22431 | 16307 ft | 226 kts | 44° |
| 2026-04-15 15:38 | 34.71389 | -14.21108 | 16305 ft | 225 kts | 44° |
| 2026-04-15 15:38 | 34.72501 | -14.19770 | 16305 ft | 225 kts | 44° |
| 2026-04-15 15:38 | 34.73613 | -14.18436 | 16305 ft | 225 kts | 43° |
| 2026-04-15 15:39 | 34.74725 | -14.17101 | 16305 ft | 225 kts | 44° |
| 2026-04-15 15:39 | 34.75835 | -14.15764 | 16302 ft | 224 kts | 43° |
| 2026-04-15 15:39 | 34.76943 | -14.14428 | 16303 ft | 224 kts | 43° |
| 2026-04-15 15:39 | 34.78052 | -14.13094 | 16303 ft | 224 kts | 43° |
| 2026-04-15 15:40 | 34.79159 | -14.11761 | 16303 ft | 224 kts | 43° |
| 2026-04-15 15:40 | 34.80266 | -14.10428 | 16302 ft | 224 kts | 43° |
| 2026-04-15 15:40 | 34.81376 | -14.09089 | 16303 ft | 225 kts | 43° |
| 2026-04-15 15:40 | 34.82483 | -14.07752 | 16303 ft | 224 kts | 43° |
| 2026-04-15 15:41 | 34.83591 | -14.06420 | 16306 ft | 224 kts | 43° |
| 2026-04-15 15:41 | 34.84699 | -14.05083 | 16306 ft | 224 kts | 43° |
| 2026-04-15 15:41 | 34.85805 | -14.03747 | 16306 ft | 224 kts | 44° |
| 2026-04-15 15:41 | 34.86911 | -14.02412 | 16306 ft | 224 kts | 43° |
| 2026-04-15 15:42 | 34.88017 | -14.01074 | 16307 ft | 224 kts | 43° |
| 2026-04-15 15:42 | 34.89123 | -13.99739 | 16308 ft | 223 kts | 44° |
| 2026-04-15 15:42 | 34.90227 | -13.98404 | 16307 ft | 224 kts | 43° |
| 2026-04-15 15:42 | 34.91334 | -13.97063 | 16308 ft | 224 kts | 44° |
| 2026-04-15 15:43 | 34.92440 | -13.95719 | 16305 ft | 224 kts | 43° |
| 2026-04-15 15:43 | 34.93532 | -13.94403 | 16304 ft | 224 kts | 43° |
| 2026-04-15 15:43 | 34.94641 | -13.93065 | 16305 ft | 224 kts | 44° |
| 2026-04-15 15:43 | 34.95746 | -13.91722 | 16308 ft | 225 kts | 43° |
| 2026-04-15 15:44 | 34.96855 | -13.90374 | 16305 ft | 225 kts | 43° |
| 2026-04-15 15:44 | 34.97964 | -13.89029 | 16308 ft | 225 kts | 43° |
| 2026-04-15 15:44 | 34.99075 | -13.87683 | 16305 ft | 225 kts | 43° |
| 2026-04-15 15:44 | 35.00184 | -13.86338 | 16305 ft | 225 kts | 43° |
| 2026-04-15 15:45 | 35.01295 | -13.84988 | 16302 ft | 225 kts | 43° |
| 2026-04-15 15:45 | 35.02405 | -13.83643 | 16302 ft | 225 kts | 43° |
| 2026-04-15 15:45 | 35.03513 | -13.82297 | 16302 ft | 225 kts | 43° |
| 2026-04-15 15:45 | 35.04246 | -13.81405 | 16302 ft | 225 kts | 43° |
| 2026-04-15 15:46 | 35.05356 | -13.80055 | 16300 ft | 225 kts | 43° |
| 2026-04-15 15:46 | 35.06463 | -13.78708 | 16303 ft | 225 kts | 43° |
| 2026-04-15 15:46 | 35.07569 | -13.77362 | 16300 ft | 225 kts | 43° |
| 2026-04-15 15:46 | 35.08678 | -13.76012 | 16300 ft | 225 kts | 42° |
| 2026-04-15 15:47 | 35.09784 | -13.74665 | 16303 ft | 225 kts | 43° |
| 2026-04-15 15:47 | 35.10893 | -13.73315 | 16304 ft | 225 kts | 43° |
| 2026-04-15 15:47 | 35.12001 | -13.71965 | 16302 ft | 225 kts | 43° |
| 2026-04-15 15:47 | 35.13107 | -13.70613 | 16304 ft | 225 kts | 44° |
| 2026-04-15 15:48 | 35.14214 | -13.69264 | 16305 ft | 225 kts | 43° |
| 2026-04-15 15:48 | 35.15323 | -13.67910 | 16305 ft | 225 kts | 43° |
| 2026-04-15 15:48 | 35.16431 | -13.66560 | 16306 ft | 225 kts | 44° |
| 2026-04-15 15:48 | 35.17536 | -13.65209 | 16305 ft | 225 kts | 43° |
| 2026-04-15 15:49 | 35.18643 | -13.63855 | 16303 ft | 225 kts | 44° |
| 2026-04-15 15:49 | 35.19751 | -13.62503 | 16303 ft | 225 kts | 44° |
| 2026-04-15 15:49 | 35.20858 | -13.61149 | 16303 ft | 225 kts | 44° |
| 2026-04-15 15:49 | 35.21965 | -13.59797 | 16303 ft | 225 kts | 44° |
| 2026-04-15 15:50 | 35.23070 | -13.58443 | 16304 ft | 225 kts | 43° |
| 2026-04-15 15:50 | 35.24176 | -13.57088 | 16304 ft | 225 kts | 43° |
| 2026-04-15 15:50 | 35.25283 | -13.55734 | 16304 ft | 225 kts | 43° |
| 2026-04-15 15:50 | 35.26387 | -13.54379 | 16304 ft | 225 kts | 44° |
| 2026-04-15 15:51 | 35.27492 | -13.53025 | 16305 ft | 225 kts | 43° |
| 2026-04-15 15:51 | 35.28597 | -13.51669 | 16303 ft | 225 kts | 43° |
| 2026-04-15 15:51 | 35.29687 | -13.50331 | 16303 ft | 225 kts | 43° |
| 2026-04-15 15:51 | 35.30792 | -13.48976 | 16303 ft | 225 kts | 43° |
| 2026-04-15 15:52 | 35.31894 | -13.47623 | 16310 ft | 225 kts | 44° |
| 2026-04-15 15:52 | 35.32998 | -13.46267 | 16306 ft | 224 kts | 44° |
| 2026-04-15 15:52 | 35.34098 | -13.44915 | 16306 ft | 224 kts | 43° |
| 2026-04-15 15:52 | 35.35200 | -13.43562 | 16306 ft | 225 kts | 43° |
| 2026-04-15 15:53 | 35.36301 | -13.42206 | 16310 ft | 224 kts | 44° |
| 2026-04-15 15:53 | 35.37401 | -13.40852 | 16306 ft | 224 kts | 43° |
| 2026-04-15 15:53 | 35.38502 | -13.39500 | 16306 ft | 224 kts | 43° |
| 2026-04-15 15:53 | 35.39605 | -13.38142 | 16306 ft | 225 kts | 44° |
| 2026-04-15 15:54 | 35.40704 | -13.36784 | 16303 ft | 224 kts | 44° |
| 2026-04-15 15:54 | 35.41804 | -13.35428 | 16303 ft | 225 kts | 43° |
| 2026-04-15 15:54 | 35.42907 | -13.34070 | 16303 ft | 225 kts | 43° |
| 2026-04-15 15:54 | 35.44008 | -13.32712 | 16304 ft | 224 kts | 44° |
| 2026-04-15 15:55 | 35.45107 | -13.31357 | 16301 ft | 224 kts | 43° |
| 2026-04-15 15:55 | 35.46208 | -13.29999 | 16301 ft | 224 kts | 43° |
| 2026-04-15 15:55 | 35.47307 | -13.28642 | 16301 ft | 224 kts | 43° |
| 2026-04-15 15:55 | 35.48406 | -13.27282 | 16301 ft | 224 kts | 44° |
| 2026-04-15 15:56 | 35.49506 | -13.25922 | 16304 ft | 224 kts | 43° |
| 2026-04-15 15:56 | 35.50607 | -13.24562 | 16304 ft | 224 kts | 44° |
| 2026-04-15 15:56 | 35.51704 | -13.23206 | 16304 ft | 224 kts | 43° |
| 2026-04-15 15:56 | 35.52802 | -13.21845 | 16307 ft | 225 kts | 44° |
| 2026-04-15 15:57 | 35.53903 | -13.20482 | 16301 ft | 225 kts | 44° |
| 2026-04-15 15:57 | 35.55004 | -13.19119 | 16301 ft | 225 kts | 43° |
| 2026-04-15 15:57 | 35.56104 | -13.17755 | 16301 ft | 225 kts | 44° |
| 2026-04-15 15:57 | 35.57204 | -13.16392 | 16302 ft | 225 kts | 44° |
| 2026-04-15 15:58 | 35.58304 | -13.15028 | 16305 ft | 225 kts | 44° |
| 2026-04-15 15:58 | 35.59403 | -13.13665 | 16301 ft | 225 kts | 44° |
| 2026-04-15 15:58 | 35.60505 | -13.12299 | 16303 ft | 225 kts | 44° |
| 2026-04-15 15:58 | 35.61590 | -13.10951 | 16302 ft | 225 kts | 44° |
| 2026-04-15 15:59 | 35.62693 | -13.09584 | 16303 ft | 225 kts | 43° |
| 2026-04-15 15:59 | 35.63795 | -13.08213 | 16300 ft | 225 kts | 43° |
| 2026-04-15 15:59 | 35.64895 | -13.06844 | 16300 ft | 225 kts | 44° |
| 2026-04-15 15:59 | 35.65998 | -13.05474 | 16297 ft | 226 kts | 43° |
| 2026-04-15 16:00 | 35.67101 | -13.04099 | 16299 ft | 226 kts | 44° |
| 2026-04-15 16:00 | 35.68204 | -13.02727 | 16299 ft | 225 kts | 43° |
| 2026-04-15 16:00 | 35.69306 | -13.01354 | 16302 ft | 226 kts | 43° |
| 2026-04-15 16:00 | 35.70411 | -12.99979 | 16302 ft | 226 kts | 43° |
| 2026-04-15 16:01 | 35.71510 | -12.98608 | 16300 ft | 225 kts | 43° |
| 2026-04-15 16:01 | 35.72611 | -12.97236 | 16304 ft | 225 kts | 44° |
| 2026-04-15 16:01 | 35.73710 | -12.95865 | 16300 ft | 225 kts | 43° |
| 2026-04-15 16:01 | 35.74810 | -12.94492 | 16301 ft | 225 kts | 43° |
| 2026-04-15 16:02 | 35.75909 | -12.93121 | 16303 ft | 225 kts | 43° |
| 2026-04-15 16:02 | 35.77011 | -12.91747 | 16303 ft | 225 kts | 44° |
| 2026-04-15 16:02 | 35.78109 | -12.90374 | 16305 ft | 225 kts | 44° |
| 2026-04-15 16:02 | 35.79208 | -12.88999 | 16301 ft | 225 kts | 43° |
| 2026-04-15 16:03 | 35.80310 | -12.87622 | 16301 ft | 225 kts | 44° |
| 2026-04-15 16:03 | 35.81410 | -12.86246 | 16300 ft | 225 kts | 44° |
| 2026-04-15 16:03 | 35.82510 | -12.84869 | 16300 ft | 226 kts | 43° |
| 2026-04-15 16:03 | 35.83611 | -12.83489 | 16300 ft | 226 kts | 44° |
| 2026-04-15 16:04 | 35.84713 | -12.82110 | 16300 ft | 226 kts | 44° |
| 2026-04-15 16:04 | 35.85798 | -12.80750 | 16300 ft | 225 kts | 44° |
| 2026-04-15 16:04 | 35.86899 | -12.79370 | 16300 ft | 226 kts | 44° |
| 2026-04-15 16:04 | 35.88000 | -12.77990 | 16300 ft | 226 kts | 44° |
| 2026-04-15 16:05 | 35.89101 | -12.76610 | 16300 ft | 226 kts | 43° |
| 2026-04-15 16:05 | 35.90201 | -12.75229 | 16300 ft | 226 kts | 43° |
| 2026-04-15 16:05 | 35.91301 | -12.73849 | 16301 ft | 225 kts | 44° |
| 2026-04-15 16:05 | 35.92397 | -12.72470 | 16301 ft | 225 kts | 44° |
| 2026-04-15 16:06 | 35.93495 | -12.71090 | 16300 ft | 226 kts | 43° |
| 2026-04-15 16:06 | 35.94593 | -12.69710 | 16301 ft | 225 kts | 44° |
| 2026-04-15 16:06 | 35.95690 | -12.68329 | 16301 ft | 225 kts | 44° |
| 2026-04-15 16:06 | 35.96787 | -12.66950 | 16303 ft | 225 kts | 44° |
| 2026-04-15 16:07 | 35.97886 | -12.65566 | 16301 ft | 225 kts | 44° |
| 2026-04-15 16:07 | 35.98982 | -12.64187 | 16301 ft | 225 kts | 44° |
| 2026-04-15 16:07 | 36.01175 | -12.61423 | 16301 ft | 225 kts | 44° |
| 2026-04-15 16:08 | 36.02270 | -12.60041 | 16301 ft | 225 kts | 44° |
| 2026-04-15 16:08 | 36.03366 | -12.58659 | 16301 ft | 225 kts | 44° |
| 2026-04-15 16:08 | 36.04463 | -12.57275 | 16301 ft | 225 kts | 44° |
| 2026-04-15 16:08 | 36.05558 | -12.55892 | 16304 ft | 225 kts | 44° |
| 2026-04-15 16:09 | 36.06656 | -12.54509 | 16298 ft | 225 kts | 43° |
| 2026-04-15 16:09 | 36.07758 | -12.53129 | 16302 ft | 225 kts | 43° |
| 2026-04-15 16:09 | 36.08856 | -12.51751 | 16299 ft | 225 kts | 43° |
| 2026-04-15 16:09 | 36.09941 | -12.50384 | 16298 ft | 226 kts | 43° |
| 2026-04-15 16:10 | 36.11042 | -12.48998 | 16300 ft | 226 kts | 43° |
| 2026-04-15 16:10 | 36.12142 | -12.47614 | 16298 ft | 226 kts | 43° |
| 2026-04-15 16:10 | 36.13242 | -12.46231 | 16297 ft | 226 kts | 43° |
| 2026-04-15 16:10 | 36.14342 | -12.44845 | 16297 ft | 226 kts | 43° |
| 2026-04-15 16:11 | 36.15441 | -12.43460 | 16297 ft | 225 kts | 44° |
| 2026-04-15 16:11 | 36.16539 | -12.42075 | 16297 ft | 225 kts | 44° |
| 2026-04-15 16:11 | 36.17638 | -12.40689 | 16294 ft | 225 kts | 44° |
| 2026-04-15 16:11 | 36.18735 | -12.39306 | 16295 ft | 225 kts | 44° |
| 2026-04-15 16:12 | 36.19831 | -12.37923 | 16288 ft | 225 kts | 44° |
| 2026-04-15 16:12 | 36.20925 | -12.36542 | 16295 ft | 225 kts | 44° |
| 2026-04-15 16:12 | 36.22019 | -12.35159 | 16295 ft | 225 kts | 44° |
| 2026-04-15 16:12 | 36.23114 | -12.33776 | 16294 ft | 225 kts | 44° |
| 2026-04-15 16:13 | 36.24208 | -12.32394 | 16292 ft | 225 kts | 44° |
| 2026-04-15 16:13 | 36.25300 | -12.31011 | 16292 ft | 225 kts | 44° |
| 2026-04-15 16:13 | 36.26393 | -12.29629 | 16292 ft | 225 kts | 44° |
| 2026-04-15 16:13 | 36.27486 | -12.28245 | 16292 ft | 225 kts | 44° |
| 2026-04-15 16:14 | 36.28579 | -12.26861 | 16292 ft | 224 kts | 44° |
| 2026-04-15 16:14 | 36.29671 | -12.25477 | 16292 ft | 224 kts | 44° |
| 2026-04-15 16:14 | 36.30763 | -12.24094 | 16292 ft | 225 kts | 44° |
| 2026-04-15 16:14 | 36.31854 | -12.22710 | 16295 ft | 225 kts | 44° |
| 2026-04-15 16:15 | 36.32946 | -12.21324 | 16293 ft | 225 kts | 44° |
| 2026-04-15 16:15 | 36.34038 | -12.19940 | 16293 ft | 225 kts | 44° |
| 2026-04-15 16:15 | 36.35129 | -12.18554 | 16293 ft | 225 kts | 44° |
| 2026-04-15 16:15 | 36.36220 | -12.17167 | 16293 ft | 225 kts | 44° |
| 2026-04-15 16:16 | 36.37298 | -12.15799 | 16298 ft | 225 kts | 44° |
| 2026-04-15 16:16 | 36.38391 | -12.14409 | 16298 ft | 225 kts | 44° |
| 2026-04-15 16:16 | 36.39483 | -12.13019 | 16298 ft | 225 kts | 44° |
| 2026-04-15 16:16 | 36.40576 | -12.11630 | 16298 ft | 225 kts | 44° |
| 2026-04-15 16:17 | 36.41669 | -12.10238 | 16298 ft | 225 kts | 44° |
| 2026-04-15 16:17 | 36.42762 | -12.08846 | 16297 ft | 225 kts | 44° |
| 2026-04-15 16:17 | 36.43854 | -12.07455 | 16301 ft | 225 kts | 44° |
| 2026-04-15 16:17 | 36.44948 | -12.06060 | 16296 ft | 225 kts | 44° |
| 2026-04-15 16:18 | 36.46040 | -12.04668 | 16298 ft | 225 kts | 44° |
| 2026-04-15 16:18 | 36.47132 | -12.03275 | 16297 ft | 225 kts | 44° |
| 2026-04-15 16:18 | 36.48223 | -12.01883 | 16297 ft | 225 kts | 44° |
| 2026-04-15 16:18 | 36.49315 | -12.00489 | 16297 ft | 225 kts | 44° |
| 2026-04-15 16:19 | 36.50407 | -11.99094 | 16297 ft | 225 kts | 44° |
| 2026-04-15 16:19 | 36.51498 | -11.97700 | 16297 ft | 225 kts | 44° |
| 2026-04-15 16:19 | 36.52589 | -11.96306 | 16297 ft | 225 kts | 44° |
| 2026-04-15 16:19 | 36.53680 | -11.94910 | 16299 ft | 225 kts | 44° |
| 2026-04-15 16:20 | 36.54771 | -11.93515 | 16300 ft | 225 kts | 44° |
| 2026-04-15 16:20 | 36.55862 | -11.92118 | 16299 ft | 225 kts | 44° |
| 2026-04-15 16:20 | 36.56952 | -11.90721 | 16296 ft | 225 kts | 44° |
| 2026-04-15 16:20 | 36.58042 | -11.89327 | 16299 ft | 225 kts | 44° |
| 2026-04-15 16:21 | 36.59133 | -11.87928 | 16297 ft | 225 kts | 44° |
| 2026-04-15 16:21 | 36.60222 | -11.86531 | 16292 ft | 225 kts | 44° |
| 2026-04-15 16:21 | 36.61312 | -11.85133 | 16297 ft | 225 kts | 44° |
| 2026-04-15 16:21 | 36.62403 | -11.83734 | 16297 ft | 225 kts | 44° |
| 2026-04-15 16:22 | 36.63491 | -11.82337 | 16297 ft | 225 kts | 44° |
| 2026-04-15 16:22 | 36.64565 | -11.80956 | 16297 ft | 225 kts | 44° |
| 2026-04-15 16:22 | 36.65654 | -11.79557 | 16295 ft | 225 kts | 44° |
| 2026-04-15 16:22 | 36.66743 | -11.78156 | 16290 ft | 225 kts | 44° |
| 2026-04-15 16:23 | 36.67832 | -11.76756 | 16295 ft | 225 kts | 44° |
| 2026-04-15 16:23 | 36.68920 | -11.75356 | 16295 ft | 225 kts | 44° |
| 2026-04-15 16:23 | 36.70009 | -11.73954 | 16293 ft | 225 kts | 44° |
| 2026-04-15 16:23 | 36.71099 | -11.72551 | 16293 ft | 225 kts | 44° |
| 2026-04-15 16:24 | 36.72187 | -11.71149 | 16286 ft | 225 kts | 44° |
| 2026-04-15 16:24 | 36.73277 | -11.69744 | 16288 ft | 225 kts | 44° |
| 2026-04-15 16:24 | 36.74367 | -11.68340 | 16292 ft | 225 kts | 44° |
| 2026-04-15 16:24 | 36.75455 | -11.66935 | 16293 ft | 225 kts | 44° |
| 2026-04-15 16:25 | 36.76542 | -11.65532 | 16293 ft | 225 kts | 44° |
| 2026-04-15 16:25 | 36.77631 | -11.64125 | 16293 ft | 225 kts | 44° |
| 2026-04-15 16:25 | 36.78718 | -11.62721 | 16293 ft | 225 kts | 44° |
| 2026-04-15 16:25 | 36.79806 | -11.61316 | 16293 ft | 225 kts | 44° |
| 2026-04-15 16:26 | 36.80893 | -11.59910 | 16293 ft | 225 kts | 44° |
| 2026-04-15 16:26 | 36.81981 | -11.58503 | 16293 ft | 225 kts | 44° |
| 2026-04-15 16:26 | 36.83068 | -11.57095 | 16293 ft | 225 kts | 44° |
| 2026-04-15 16:26 | 36.84154 | -11.55690 | 16293 ft | 225 kts | 44° |
| 2026-04-15 16:27 | 36.85241 | -11.54282 | 16290 ft | 225 kts | 44° |
| 2026-04-15 16:27 | 36.86327 | -11.52876 | 16290 ft | 225 kts | 44° |
| 2026-04-15 16:27 | 36.87415 | -11.51466 | 16293 ft | 225 kts | 44° |
| 2026-04-15 16:27 | 36.88487 | -11.50075 | 16293 ft | 225 kts | 44° |
| 2026-04-15 16:28 | 36.89587 | -11.48649 | 16293 ft | 225 kts | 44° |
| 2026-04-15 16:28 | 36.90658 | -11.47258 | 16293 ft | 225 kts | 44° |
| 2026-04-15 16:28 | 36.91744 | -11.45848 | 16293 ft | 225 kts | 44° |
| 2026-04-15 16:28 | 36.92830 | -11.44436 | 16293 ft | 225 kts | 44° |
| 2026-04-15 16:29 | 36.93917 | -11.43024 | 16293 ft | 226 kts | 44° |
| 2026-04-15 16:29 | 36.95004 | -11.41610 | 16293 ft | 226 kts | 44° |
| 2026-04-15 16:29 | 36.96092 | -11.40195 | 16293 ft | 226 kts | 44° |
| 2026-04-15 16:29 | 36.97179 | -11.38780 | 16293 ft | 226 kts | 44° |
| 2026-04-15 16:30 | 36.98266 | -11.37365 | 16293 ft | 226 kts | 44° |
| 2026-04-15 16:30 | 36.99353 | -11.35948 | 16293 ft | 226 kts | 44° |
| 2026-04-15 16:30 | 37.00441 | -11.34531 | 16293 ft | 226 kts | 44° |
| 2026-04-15 16:30 | 37.01528 | -11.33114 | 16289 ft | 226 kts | 44° |
| 2026-04-15 16:31 | 37.02615 | -11.31696 | 16293 ft | 226 kts | 44° |
| 2026-04-15 16:31 | 37.03703 | -11.30278 | 16290 ft | 226 kts | 44° |
| 2026-04-15 16:31 | 37.04789 | -11.28859 | 16290 ft | 226 kts | 44° |
| 2026-04-15 16:31 | 37.05894 | -11.27457 | 16290 ft | 226 kts | 42° |
| 2026-04-15 16:32 | 37.07030 | -11.26105 | 16290 ft | 226 kts | 41° |
| 2026-04-15 16:32 | 37.08163 | -11.24742 | 16290 ft | 226 kts | 42° |
| 2026-04-15 16:32 | 37.09288 | -11.23369 | 16293 ft | 226 kts | 42° |
| 2026-04-15 16:32 | 37.10413 | -11.21994 | 16293 ft | 226 kts | 42° |
| 2026-04-15 16:33 | 37.11538 | -11.20622 | 16290 ft | 226 kts | 42° |
| 2026-04-15 16:33 | 37.12663 | -11.19249 | 16290 ft | 226 kts | 42° |
| 2026-04-15 16:33 | 37.13789 | -11.17875 | 16290 ft | 226 kts | 42° |
| 2026-04-15 16:33 | 37.14912 | -11.16502 | 16290 ft | 226 kts | 42° |
| 2026-04-15 16:34 | 37.16038 | -11.15126 | 16287 ft | 226 kts | 42° |
| 2026-04-15 16:34 | 37.17161 | -11.13753 | 16287 ft | 226 kts | 42° |
| 2026-04-15 16:34 | 37.18284 | -11.12379 | 16284 ft | 226 kts | 42° |
| 2026-04-15 16:34 | 37.19408 | -11.11005 | 16295 ft | 226 kts | 42° |
| 2026-04-15 16:35 | 37.20533 | -11.09627 | 16292 ft | 226 kts | 42° |
| 2026-04-15 16:35 | 37.21659 | -11.08250 | 16292 ft | 226 kts | 42° |
| 2026-04-15 16:35 | 37.22784 | -11.06870 | 16292 ft | 226 kts | 42° |
| 2026-04-15 16:35 | 37.23912 | -11.05489 | 16292 ft | 226 kts | 42° |
| 2026-04-15 16:36 | 37.24657 | -11.04574 | 16290 ft | 226 kts | 42° |
| 2026-04-15 16:36 | 37.25784 | -11.03192 | 16290 ft | 226 kts | 42° |
| 2026-04-15 16:36 | 37.27275 | -11.01363 | 16290 ft | 226 kts | 42° |
| 2026-04-15 16:36 | 37.28402 | -10.99979 | 16290 ft | 226 kts | 42° |
| 2026-04-15 16:37 | 37.29162 | -10.99045 | 16290 ft | 226 kts | 42° |
| 2026-04-15 16:37 | 37.30288 | -10.97662 | 16290 ft | 226 kts | 42° |
| 2026-04-15 16:37 | 37.31414 | -10.96277 | 16290 ft | 226 kts | 42° |
| 2026-04-15 16:37 | 37.32525 | -10.94912 | 16290 ft | 226 kts | 42° |
| 2026-04-15 16:38 | 37.33650 | -10.93527 | 16282 ft | 226 kts | 42° |
| 2026-04-15 16:38 | 37.34774 | -10.92143 | 16285 ft | 226 kts | 42° |
| 2026-04-15 16:38 | 37.35898 | -10.90757 | 16285 ft | 226 kts | 42° |
| 2026-04-15 16:38 | 37.37029 | -10.89368 | 16282 ft | 226 kts | 42° |
| 2026-04-15 16:39 | 37.38153 | -10.87982 | 16286 ft | 226 kts | 42° |
| 2026-04-15 16:39 | 37.39277 | -10.86594 | 16283 ft | 226 kts | 42° |
| 2026-04-15 16:39 | 37.40403 | -10.85206 | 16283 ft | 227 kts | 42° |
| 2026-04-15 16:39 | 37.41528 | -10.83817 | 16280 ft | 227 kts | 42° |
| 2026-04-15 16:40 | 37.42654 | -10.82427 | 16286 ft | 227 kts | 42° |
| 2026-04-15 16:40 | 37.43781 | -10.81035 | 16286 ft | 227 kts | 42° |
| 2026-04-15 16:40 | 37.44907 | -10.79643 | 16286 ft | 227 kts | 42° |
| 2026-04-15 16:40 | 37.46032 | -10.78251 | 16289 ft | 227 kts | 42° |
| 2026-04-15 16:41 | 37.47159 | -10.76859 | 16287 ft | 227 kts | 42° |
| 2026-04-15 16:41 | 37.48285 | -10.75465 | 16287 ft | 227 kts | 42° |
| 2026-04-15 16:41 | 37.49408 | -10.74075 | 16287 ft | 227 kts | 42° |
| 2026-04-15 16:41 | 37.50534 | -10.72680 | 16287 ft | 227 kts | 42° |
| 2026-04-15 16:42 | 37.51656 | -10.71289 | 16287 ft | 226 kts | 42° |
| 2026-04-15 16:42 | 37.52779 | -10.69897 | 16287 ft | 226 kts | 42° |
| 2026-04-15 16:42 | 37.53901 | -10.68505 | 16287 ft | 227 kts | 42° |
| 2026-04-15 16:42 | 37.55024 | -10.67112 | 16287 ft | 226 kts | 42° |
| 2026-04-15 16:43 | 37.56131 | -10.65737 | 16287 ft | 227 kts | 42° |
| 2026-04-15 16:43 | 37.57254 | -10.64342 | 16287 ft | 227 kts | 42° |
| 2026-04-15 16:43 | 37.58375 | -10.62945 | 16287 ft | 227 kts | 42° |
| 2026-04-15 16:43 | 37.59500 | -10.61555 | 16287 ft | 227 kts | 42° |
| 2026-04-15 16:44 | 37.60624 | -10.60157 | 16287 ft | 227 kts | 42° |
| 2026-04-15 16:44 | 37.61744 | -10.58761 | 16287 ft | 227 kts | 42° |
| 2026-04-15 16:44 | 37.62863 | -10.57363 | 16286 ft | 227 kts | 42° |
| 2026-04-15 16:44 | 37.63987 | -10.55970 | 16285 ft | 226 kts | 42° |
| 2026-04-15 16:45 | 37.65108 | -10.54574 | 16283 ft | 226 kts | 42° |
| 2026-04-15 16:45 | 37.66228 | -10.53176 | 16283 ft | 227 kts | 42° |
| 2026-04-15 16:45 | 37.67350 | -10.51776 | 16283 ft | 227 kts | 42° |
| 2026-04-15 16:45 | 37.68471 | -10.50378 | 16283 ft | 227 kts | 42° |
| 2026-04-15 16:46 | 37.69592 | -10.48980 | 16286 ft | 227 kts | 42° |
| 2026-04-15 16:46 | 37.70715 | -10.47578 | 16286 ft | 227 kts | 42° |
| 2026-04-15 16:46 | 37.71837 | -10.46175 | 16286 ft | 227 kts | 42° |
| 2026-04-15 16:46 | 37.72960 | -10.44774 | 16286 ft | 227 kts | 42° |
| 2026-04-15 16:47 | 37.74081 | -10.43371 | 16284 ft | 227 kts | 42° |
| 2026-04-15 16:47 | 37.75201 | -10.41969 | 16284 ft | 227 kts | 42° |
| 2026-04-15 16:47 | 37.76306 | -10.40587 | 16284 ft | 226 kts | 42° |
| 2026-04-15 16:47 | 37.77424 | -10.39187 | 16284 ft | 226 kts | 42° |
| 2026-04-15 16:48 | 37.78542 | -10.37787 | 16284 ft | 226 kts | 42° |
| 2026-04-15 16:48 | 37.79659 | -10.36386 | 16284 ft | 226 kts | 42° |
| 2026-04-15 16:48 | 37.80777 | -10.34984 | 16284 ft | 226 kts | 42° |
| 2026-04-15 16:48 | 37.81894 | -10.33584 | 16284 ft | 226 kts | 42° |
| 2026-04-15 16:49 | 37.83011 | -10.32182 | 16284 ft | 226 kts | 42° |
| 2026-04-15 16:49 | 37.84128 | -10.30780 | 16284 ft | 226 kts | 42° |
| 2026-04-15 16:49 | 37.85246 | -10.29376 | 16284 ft | 226 kts | 42° |
| 2026-04-15 16:49 | 37.86363 | -10.27972 | 16284 ft | 226 kts | 42° |
| 2026-04-15 16:50 | 37.87481 | -10.26567 | 16281 ft | 226 kts | 42° |
| 2026-04-15 16:50 | 37.88600 | -10.25159 | 16281 ft | 226 kts | 42° |
| 2026-04-15 16:50 | 37.89716 | -10.23756 | 16281 ft | 226 kts | 42° |
| 2026-04-15 16:50 | 37.90833 | -10.22349 | 16282 ft | 226 kts | 42° |
| 2026-04-15 16:51 | 37.91950 | -10.20942 | 16282 ft | 226 kts | 42° |
| 2026-04-15 16:51 | 37.93067 | -10.19534 | 16282 ft | 226 kts | 42° |
| 2026-04-15 16:51 | 37.94184 | -10.18126 | 16284 ft | 227 kts | 42° |
| 2026-04-15 16:51 | 37.95302 | -10.16718 | 16284 ft | 227 kts | 42° |
| 2026-04-15 16:52 | 37.96418 | -10.15309 | 16284 ft | 227 kts | 42° |
| 2026-04-15 16:52 | 37.97536 | -10.13899 | 16284 ft | 227 kts | 43° |
| 2026-04-15 16:52 | 37.98638 | -10.12506 | 16282 ft | 226 kts | 42° |
| 2026-04-15 16:52 | 37.99755 | -10.11096 | 16282 ft | 227 kts | 43° |
| 2026-04-15 16:53 | 38.00885 | -10.09667 | 16282 ft | 227 kts | 42° |
| 2026-04-15 16:53 | 38.02001 | -10.08255 | 16266 ft | 227 kts | 42° |
| 2026-04-15 16:53 | 38.03106 | -10.06853 | 16021 ft | 224 kts | 43° |
| 2026-04-15 16:53 | 38.04220 | -10.05439 | 15769 ft | 223 kts | 42° |
| 2026-04-15 16:54 | 38.05308 | -10.04067 | 15530 ft | 223 kts | 42° |
| 2026-04-15 16:54 | 38.06405 | -10.02680 | 15291 ft | 222 kts | 42° |
| 2026-04-15 16:54 | 38.07497 | -10.01296 | 15054 ft | 221 kts | 42° |
| 2026-04-15 16:54 | 38.08586 | -9.99915 | 14818 ft | 221 kts | 43° |
| 2026-04-15 16:55 | 38.09670 | -9.98540 | 14586 ft | 220 kts | 42° |
| 2026-04-15 16:55 | 38.10752 | -9.97167 | 14351 ft | 219 kts | 43° |
| 2026-04-15 16:55 | 38.11827 | -9.95801 | 14120 ft | 218 kts | 42° |
| 2026-04-15 16:55 | 38.12899 | -9.94441 | 13866 ft | 218 kts | 42° |
| 2026-04-15 16:56 | 38.13969 | -9.93083 | 13603 ft | 217 kts | 42° |
| 2026-04-15 16:56 | 38.15032 | -9.91730 | 13346 ft | 216 kts | 42° |
| 2026-04-15 16:56 | 38.16095 | -9.90379 | 13090 ft | 216 kts | 42° |
| 2026-04-15 16:56 | 38.17153 | -9.89033 | 12837 ft | 214 kts | 43° |
| 2026-04-15 16:57 | 38.18188 | -9.87710 | 12581 ft | 208 kts | 43° |
| 2026-04-15 16:57 | 38.19193 | -9.86430 | 12333 ft | 206 kts | 42° |
| 2026-04-15 16:57 | 38.20235 | -9.85111 | 12084 ft | 212 kts | 42° |
| 2026-04-15 16:57 | 38.21271 | -9.83793 | 11845 ft | 215 kts | 42° |
| 2026-04-15 16:58 | 38.22328 | -9.82442 | 11603 ft | 216 kts | 43° |
| 2026-04-15 16:58 | 38.23392 | -9.81085 | 11366 ft | 217 kts | 42° |
| 2026-04-15 16:58 | 38.24452 | -9.79732 | 11129 ft | 210 kts | 43° |
| 2026-04-15 16:58 | 38.25439 | -9.78456 | 10881 ft | 197 kts | 43° |
| 2026-04-15 16:59 | 38.26397 | -9.77237 | 10633 ft | 196 kts | 43° |
| 2026-04-15 16:59 | 38.27374 | -9.76000 | 10385 ft | 200 kts | 43° |
| 2026-04-15 16:59 | 38.28362 | -9.74737 | 10104 ft | 201 kts | 44° |
| 2026-04-15 16:59 | 38.29351 | -9.73469 | 9798 ft | 202 kts | 44° |
| 2026-04-15 17:00 | 38.30343 | -9.72202 | 9485 ft | 202 kts | 43° |
| 2026-04-15 17:00 | 38.31337 | -9.70939 | 9198 ft | 201 kts | 44° |
| 2026-04-15 17:00 | 38.32318 | -9.69674 | 8920 ft | 201 kts | 44° |
| 2026-04-15 17:00 | 38.33300 | -9.68413 | 8641 ft | 201 kts | 44° |
| 2026-04-15 17:01 | 38.34286 | -9.67152 | 8368 ft | 201 kts | 44° |
| 2026-04-15 17:01 | 38.35267 | -9.65894 | 8097 ft | 199 kts | 44° |
| 2026-04-15 17:01 | 38.36244 | -9.64640 | 7828 ft | 200 kts | 44° |
| 2026-04-15 17:01 | 38.37229 | -9.63376 | 7540 ft | 200 kts | 44° |
| 2026-04-15 17:02 | 38.38176 | -9.62158 | 7255 ft | 192 kts | 44° |
| 2026-04-15 17:02 | 38.39107 | -9.60960 | 6967 ft | 190 kts | 44° |
| 2026-04-15 17:02 | 38.40037 | -9.59770 | 6677 ft | 190 kts | 44° |
| 2026-04-15 17:02 | 38.40964 | -9.58576 | 6376 ft | 189 kts | 44° |
| 2026-04-15 17:03 | 38.41876 | -9.57404 | 6120 ft | 184 kts | 44° |
| 2026-04-15 17:03 | 38.42778 | -9.56246 | 5869 ft | 183 kts | 44° |
| 2026-04-15 17:03 | 38.43670 | -9.55097 | 5617 ft | 182 kts | 43° |
| 2026-04-15 17:03 | 38.44557 | -9.53956 | 5372 ft | 180 kts | 44° |
| 2026-04-15 17:04 | 38.45430 | -9.52829 | 5125 ft | 178 kts | 43° |
| 2026-04-15 17:04 | 38.46303 | -9.51707 | 4834 ft | 178 kts | 44° |
| 2026-04-15 17:04 | 38.47171 | -9.50589 | 4534 ft | 176 kts | 43° |
| 2026-04-15 17:04 | 38.48029 | -9.49484 | 4231 ft | 174 kts | 44° |
| 2026-04-15 17:05 | 38.48874 | -9.48394 | 3935 ft | 171 kts | 44° |
| 2026-04-15 17:05 | 38.49696 | -9.47338 | 3675 ft | 167 kts | 43° |
| 2026-04-15 17:05 | 38.50504 | -9.46287 | 3430 ft | 165 kts | 43° |
| 2026-04-15 17:05 | 38.51312 | -9.45237 | 3213 ft | 168 kts | 44° |
| 2026-04-15 17:06 | 38.52153 | -9.44163 | 3024 ft | 173 kts | 44° |
| 2026-04-15 17:06 | 38.52956 | -9.43121 | 2990 ft | 160 kts | 43° |
| 2026-04-15 17:06 | 38.53748 | -9.42105 | 2985 ft | 162 kts | 44° |
| 2026-04-15 17:06 | 38.54549 | -9.41069 | 2982 ft | 167 kts | 43° |
| 2026-04-15 17:07 | 38.55467 | -9.40221 | 2981 ft | 160 kts | 21° |
| 2026-04-15 17:07 | 38.56521 | -9.39899 | 2897 ft | 155 kts | 11° |
| 2026-04-15 17:07 | 38.57575 | -9.39612 | 2649 ft | 160 kts | 11° |
| 2026-04-15 17:07 | 38.58682 | -9.39312 | 2452 ft | 167 kts | 11° |
| 2026-04-15 17:08 | 38.59801 | -9.39007 | 2250 ft | 160 kts | 11° |
| 2026-04-15 17:08 | 38.60886 | -9.38710 | 2049 ft | 157 kts | 9° |
| 2026-04-15 17:08 | 38.61928 | -9.38425 | 1982 ft | 149 kts | 10° |
| 2026-04-15 17:08 | 38.62934 | -9.38152 | 1946 ft | 143 kts | 10° |
| 2026-04-15 17:09 | 38.63916 | -9.37869 | 1592 ft | 165 kts | 7° |
| 2026-04-15 17:09 | 38.64979 | -9.37568 | 1415 ft | 143 kts | 11° |
| 2026-04-15 17:09 | 38.65882 | -9.37244 | 1279 ft | 132 kts | 11° |
| 2026-04-15 17:09 | 38.66823 | -9.36824 | 1224 ft | 150 kts | 25° |
| 2026-04-15 17:10 | 38.67632 | -9.35954 | 1052 ft | 144 kts | 44° |
| 2026-04-15 17:10 | 38.68198 | -9.35174 | 882 ft | 106 kts | 29° |
| 2026-04-15 17:10 | 38.68790 | -9.34677 | 821 ft | 94 kts | 23° |
| 2026-04-15 17:10 | 38.69405 | -9.34552 | 756 ft | 89 kts | 345° |
| 2026-04-15 17:11 | 38.69967 | -9.34703 | 588 ft | 81 kts | 356° |
| 2026-04-15 17:11 | 38.70568 | -9.34819 | 538 ft | 89 kts | 345° |
| 2026-04-15 17:11 | 38.71156 | -9.35053 | 471 ft | 84 kts | 347° |
| 2026-04-15 17:12 | 38.72227 | -9.35415 | 297 ft | 67 kts | 345° |
| 2026-04-15 17:12 | 38.72486 | -9.35516 | 303 ft | 10 kts | 345° |
| 2026-04-15 17:12 | 38.72551 | -9.35543 | 306 ft | 10 kts | 343° |
| 2026-04-15 17:12 | 38.72630 | -9.35572 | 310 ft | 13 kts | 349° |
| 2026-04-15 17:13 | 38.72679 | -9.35549 | 312 ft | 10 kts | 118° |
| 2026-04-15 17:13 | 38.72591 | -9.35501 | 307 ft | 17 kts | 168° |
| 2026-04-15 17:13 | 38.72437 | -9.35444 | 302 ft | 24 kts | 163° |
| 2026-04-15 17:13 | 38.72371 | -9.35415 | 302 ft | 5 kts | 119° |
| 2026-04-15 17:14 | 38.72378 | -9.35389 | 302 ft | 3 kts | 56° |
| 2026-04-15 17:14 | 38.72405 | -9.35359 | 303 ft | 0 kts | 345° |